createdAt,value
2017-11-21T00:00:06.267Z,28.20
2017-11-21T00:00:38.804Z,27.30
2017-11-21T00:01:11.333Z,22.90
2017-11-21T00:01:43.856Z,21.37
2017-11-21T00:02:17.171Z,26.25
2017-11-21T00:02:49.739Z,27.98
2017-11-21T00:03:22.264Z,25.70
2017-11-21T00:03:54.970Z,27.45
2017-11-21T00:04:27.518Z,27.35
2017-11-21T00:05:00.047Z,27.85
2017-11-21T00:05:32.573Z,29.48
2017-11-21T00:06:05.117Z,26.05
2017-11-21T00:06:37.645Z,23.08
2017-11-21T00:07:10.165Z,24.52
2017-11-21T00:07:42.692Z,31.77
2017-11-21T00:08:15.224Z,23.33
2017-11-21T00:08:47.749Z,25.20
2017-11-21T00:09:20.276Z,25.30
2017-11-21T00:09:52.807Z,21.55
2017-11-21T00:10:25.340Z,23.38
2017-11-21T00:10:57.869Z,23.33
2017-11-21T00:11:30.413Z,23.87
2017-11-21T00:12:02.920Z,24.37
2017-11-21T00:12:35.432Z,22.62
2017-11-21T00:13:08.251Z,20.42
2017-11-21T00:13:40.822Z,23.08
2017-11-21T00:14:13.394Z,22.85
2017-11-21T00:14:45.920Z,23.83
2017-11-21T00:15:18.460Z,23.77
2017-11-21T00:15:51.015Z,21.85
2017-11-21T00:16:23.572Z,24.55
2017-11-21T00:16:56.112Z,22.75
2017-11-21T00:17:28.640Z,22.37
2017-11-21T00:18:01.168Z,23.73
2017-11-21T00:18:33.713Z,24.48
2017-11-21T00:19:06.320Z,23.17
2017-11-21T00:19:38.829Z,24.15
2017-11-21T00:20:11.348Z,26.73
2017-11-21T00:20:44.642Z,22.23
2017-11-21T00:21:17.162Z,23.75
2017-11-21T00:21:49.695Z,25.73
2017-11-21T00:22:30.994Z,26.73
2017-11-21T00:23:03.524Z,22.65
2017-11-21T00:23:36.051Z,22.15
2017-11-21T00:24:08.581Z,23.30
2017-11-21T00:24:41.117Z,22.23
2017-11-21T00:25:13.657Z,23.83
2017-11-21T00:25:46.337Z,21.50
2017-11-21T00:26:18.863Z,22.62
2017-11-21T00:26:51.390Z,25.10
2017-11-21T00:27:23.929Z,22.37
2017-11-21T00:27:56.465Z,21.35
2017-11-21T00:28:29.760Z,22.80
2017-11-21T00:29:02.282Z,23.85
2017-11-21T00:29:34.799Z,22.48
2017-11-21T00:30:07.350Z,23.15
2017-11-21T00:30:39.874Z,24.10
2017-11-21T00:31:12.407Z,23.98
2017-11-21T00:31:44.942Z,23.50
2017-11-21T00:32:17.500Z,21.80
2017-11-21T00:32:50.092Z,24.67
2017-11-21T00:33:22.643Z,23.33
2017-11-21T00:33:55.164Z,23.00
2017-11-21T00:34:27.700Z,23.60
2017-11-21T00:35:00.229Z,25.37
2017-11-21T00:35:32.771Z,21.52
2017-11-21T00:36:06.285Z,22.40
2017-11-21T00:36:39.749Z,21.25
2017-11-21T00:37:12.897Z,20.42
2017-11-21T00:37:46.463Z,25.12
2017-11-21T00:38:18.986Z,22.30
2017-11-21T00:38:51.551Z,21.77
2017-11-21T00:39:24.141Z,23.08
2017-11-21T00:39:59.459Z,24.63
2017-11-21T00:40:31.988Z,22.70
2017-11-21T00:41:04.511Z,26.80
2017-11-21T00:41:37.031Z,22.10
2017-11-21T00:42:09.557Z,18.55
2017-11-21T00:46:23.952Z,18.40
2017-11-21T00:46:57.249Z,22.37
2017-11-21T00:47:29.779Z,20.90
2017-11-21T00:48:02.288Z,23.85
2017-11-21T00:48:34.842Z,23.80
2017-11-21T00:49:07.371Z,21.73
2017-11-21T00:49:40.693Z,20.15
2017-11-21T00:50:13.225Z,21.75
2017-11-21T00:50:46.532Z,24.12
2017-11-21T00:51:19.114Z,22.02
2017-11-21T00:51:51.665Z,23.35
2017-11-21T00:52:24.186Z,21.05
2017-11-21T00:52:56.713Z,22.52
2017-11-21T00:53:29.241Z,19.62
2017-11-21T00:54:01.752Z,24.50
2017-11-21T00:54:34.299Z,23.25
2017-11-21T00:55:06.845Z,21.42
2017-11-21T01:10:26.109Z,18.70
2017-11-21T01:10:59.351Z,19.98
2017-11-21T01:11:31.893Z,18.60
2017-11-21T01:12:04.413Z,20.98
2017-11-21T01:12:36.948Z,19.12
2017-11-21T01:13:09.483Z,19.75
2017-11-21T01:13:42.008Z,19.05
2017-11-21T01:41:28.206Z,20.42
2017-11-21T01:42:00.740Z,19.58
2017-11-21T01:42:33.274Z,23.30
2017-11-21T01:43:05.786Z,20.65
2017-11-21T01:43:38.299Z,21.77
2017-11-21T01:44:10.818Z,19.60
2017-11-21T01:44:43.332Z,21.35
2017-11-21T01:45:15.853Z,23.20
2017-11-21T01:45:48.369Z,22.67
2017-11-21T01:46:20.906Z,22.23
2017-11-21T01:46:53.469Z,19.95
2017-11-21T01:47:26.093Z,20.42
2017-11-21T01:47:58.657Z,22.98
2017-11-21T01:48:31.183Z,18.67
2017-11-21T01:49:03.713Z,21.87
2017-11-21T01:49:36.245Z,19.60
2017-11-21T01:50:08.795Z,21.45
2017-11-21T01:50:41.493Z,22.08
2017-11-21T01:51:14.032Z,19.83
2017-11-21T01:51:46.572Z,21.33
2017-11-21T01:52:19.129Z,23.73
2017-11-21T01:52:51.660Z,18.52
2017-11-21T01:53:25.149Z,19.70
2017-11-21T01:53:58.704Z,21.17
2017-11-21T01:54:31.422Z,19.37
2017-11-21T01:55:03.943Z,21.67
2017-11-21T01:55:36.466Z,19.67
2017-11-21T01:56:09.738Z,21.17
2017-11-21T01:56:42.284Z,20.52
2017-11-21T01:57:14.817Z,21.87
2017-11-21T01:57:47.476Z,18.62
2017-11-21T01:58:20.040Z,20.27
2017-11-21T01:58:52.707Z,21.33
2017-11-21T01:59:25.246Z,20.35
2017-11-21T01:59:57.777Z,20.60
2017-11-21T02:00:30.303Z,19.48
2017-11-21T02:01:02.843Z,20.70
2017-11-21T02:01:35.343Z,19.08
2017-11-21T02:02:07.871Z,20.40
2017-11-21T02:02:40.396Z,20.08
2017-11-21T02:03:12.935Z,18.50
2017-11-21T02:03:45.452Z,19.75
2017-11-21T02:04:17.984Z,21.95
2017-11-21T02:04:50.491Z,21.55
2017-11-21T02:05:23.008Z,20.62
2017-11-21T02:05:55.517Z,20.30
2017-11-21T02:06:28.064Z,20.15
2017-11-21T02:07:01.365Z,21.20
2017-11-21T02:07:33.872Z,22.20
2017-11-21T02:08:06.380Z,21.98
2017-11-21T02:08:39.677Z,19.27
2017-11-21T02:09:12.209Z,20.65
2017-11-21T02:09:44.747Z,22.83
2017-11-21T02:10:17.281Z,21.02
2017-11-21T02:10:49.831Z,21.58
2017-11-21T02:11:22.340Z,21.12
2017-11-21T02:11:55.654Z,23.90
2017-11-21T02:12:28.185Z,18.52
2017-11-21T02:13:00.715Z,21.52
2017-11-21T02:13:33.256Z,20.10
2017-11-21T02:14:05.792Z,19.52
2017-11-21T02:14:38.319Z,19.20
2017-11-21T02:15:10.852Z,19.42
2017-11-21T02:15:43.366Z,20.37
2017-11-21T02:16:15.879Z,19.60
2017-11-21T02:16:48.421Z,21.52
2017-11-21T02:17:21.729Z,19.52
2017-11-21T02:17:54.248Z,19.77
2017-11-21T02:18:26.773Z,18.70
2017-11-21T02:18:59.285Z,19.55
2017-11-21T02:19:31.811Z,20.30
2017-11-21T02:20:04.343Z,23.77
2017-11-21T02:20:36.878Z,21.45
2017-11-21T02:21:10.459Z,22.23
2017-11-21T02:21:43.164Z,21.30
2017-11-21T02:22:16.569Z,18.60
2017-11-21T02:22:49.094Z,22.02
2017-11-21T02:23:21.622Z,18.55
2017-11-21T02:23:54.275Z,18.45
2017-11-21T02:24:26.971Z,21.02
2017-11-21T02:25:00.300Z,16.60
2017-11-21T02:25:32.873Z,20.17
2017-11-21T02:26:07.320Z,20.95
2017-11-21T02:26:41.167Z,18.98
2017-11-21T02:27:14.464Z,19.37
2017-11-21T02:27:46.998Z,20.48
2017-11-21T02:28:21.998Z,20.92
2017-11-21T02:28:55.425Z,19.30
2017-11-21T02:29:28.381Z,18.08
2017-11-21T02:30:00.925Z,20.10
2017-11-21T02:30:34.239Z,21.12
2017-11-21T02:31:06.773Z,18.73
2017-11-21T02:31:39.310Z,21.50
2017-11-21T02:32:11.863Z,20.40
2017-11-21T02:32:44.389Z,19.75
2017-11-21T02:33:16.957Z,19.17
2017-11-21T02:33:49.472Z,23.20
2017-11-21T02:34:22.785Z,20.95
2017-11-21T02:34:55.298Z,25.15
2017-11-21T02:35:27.842Z,19.40
2017-11-21T02:36:00.579Z,19.10
2017-11-21T02:36:33.092Z,18.65
2017-11-21T02:37:05.622Z,19.62
2017-11-21T02:37:38.295Z,19.55
2017-11-21T02:38:10.812Z,19.95
2017-11-21T02:38:43.344Z,22.87
2017-11-21T02:39:15.860Z,20.20
2017-11-21T02:39:48.420Z,22.30
2017-11-21T02:40:20.939Z,20.00
2017-11-21T02:40:53.494Z,19.12
2017-11-21T02:41:26.069Z,21.30
2017-11-21T02:41:58.621Z,21.30
2017-11-21T02:42:31.193Z,21.52
2017-11-21T02:43:03.715Z,21.15
2017-11-21T02:43:36.244Z,19.83
2017-11-21T02:44:09.529Z,19.73
2017-11-21T02:44:42.818Z,18.80
2017-11-21T02:45:15.347Z,19.70
2017-11-21T02:45:47.869Z,19.42
2017-11-21T02:46:20.561Z,18.20
2017-11-21T02:46:53.127Z,21.12
2017-11-21T02:47:25.657Z,18.37
2017-11-21T02:47:59.035Z,18.98
2017-11-21T02:48:31.559Z,19.60
2017-11-21T02:49:04.106Z,19.65
2017-11-21T02:49:36.629Z,19.25
2017-11-21T02:50:09.155Z,23.50
2017-11-21T02:50:42.478Z,21.98
2017-11-21T02:51:15.036Z,19.98
2017-11-21T02:51:47.590Z,19.95
2017-11-21T02:52:20.273Z,19.70
2017-11-21T02:52:52.791Z,22.00
2017-11-21T02:53:25.895Z,21.30
2017-11-21T02:53:58.423Z,18.60
2017-11-21T02:54:30.957Z,20.30
2017-11-21T02:55:03.481Z,21.77
2017-11-21T02:55:35.995Z,21.35
2017-11-21T02:56:08.503Z,20.35
2017-11-21T02:56:41.044Z,20.90
2017-11-21T02:57:13.587Z,19.45
2017-11-21T02:57:46.121Z,18.42
2017-11-21T02:58:18.709Z,20.40
2017-11-21T02:58:52.384Z,21.80
2017-11-21T02:59:24.908Z,18.15
2017-11-21T02:59:58.229Z,20.85
2017-11-21T03:00:30.753Z,24.75
2017-11-21T03:01:03.271Z,20.15
2017-11-21T03:01:36.480Z,19.12
2017-11-21T03:02:09.033Z,20.83
2017-11-21T03:02:41.580Z,22.20
2017-11-21T03:03:14.144Z,22.10
2017-11-21T03:03:46.675Z,18.85
2017-11-21T03:04:19.224Z,20.90
2017-11-21T03:04:51.765Z,17.67
2017-11-21T03:05:25.065Z,19.85
2017-11-21T03:05:57.730Z,18.73
2017-11-21T03:06:30.277Z,20.42
2017-11-21T03:07:02.877Z,21.17
2017-11-21T03:07:35.485Z,19.42
2017-11-21T03:08:08.099Z,21.10
2017-11-21T03:08:40.665Z,23.20
2017-11-21T03:09:13.189Z,19.20
2017-11-21T03:09:45.723Z,21.90
2017-11-21T03:10:18.321Z,24.23
2017-11-21T03:10:50.841Z,18.25
2017-11-21T03:11:23.397Z,20.50
2017-11-21T03:11:58.928Z,18.02
2017-11-21T03:12:31.590Z,20.48
2017-11-21T03:13:04.981Z,21.80
2017-11-21T03:13:37.536Z,20.23
2017-11-21T03:14:10.087Z,19.48
2017-11-21T03:14:42.650Z,20.65
2017-11-21T03:15:15.180Z,21.05
2017-11-21T03:15:47.696Z,22.50
2017-11-21T03:16:20.216Z,20.00
2017-11-21T03:16:53.529Z,22.23
2017-11-21T03:17:26.059Z,17.60
2017-11-21T03:17:58.603Z,22.13
2017-11-21T03:18:31.338Z,23.02
2017-11-21T03:19:03.876Z,19.48
2017-11-21T03:19:36.987Z,20.42
2017-11-21T03:20:21.365Z,23.17
2017-11-21T03:21:05.577Z,22.33
2017-11-21T03:21:49.872Z,19.60
2017-11-21T03:22:34.281Z,27.40
2017-11-21T03:23:18.559Z,22.67
2017-11-21T03:24:02.680Z,19.12
2017-11-21T03:24:47.064Z,18.92
2017-11-21T03:25:31.301Z,25.67
2017-11-21T03:26:15.699Z,24.17
2017-11-21T03:26:48.224Z,21.77
2017-11-21T03:27:32.408Z,20.58
2017-11-21T03:28:04.933Z,23.83
2017-11-21T03:28:39.140Z,22.92
2017-11-21T03:29:11.667Z,23.67
2017-11-21T03:29:44.185Z,24.85
2017-11-21T03:30:18.253Z,21.50
2017-11-21T03:30:50.794Z,19.87
2017-11-21T03:31:23.317Z,21.77
2017-11-21T03:31:55.874Z,20.30
2017-11-21T03:32:29.175Z,23.33
2017-11-21T03:33:01.697Z,21.05
2017-11-21T03:33:34.223Z,23.70
2017-11-21T03:34:06.762Z,20.20
2017-11-21T03:34:39.277Z,21.67
2017-11-21T03:35:11.810Z,20.88
2017-11-21T03:35:44.345Z,22.50
2017-11-21T03:36:16.869Z,24.23
2017-11-21T03:36:49.398Z,22.27
2017-11-21T03:37:21.933Z,23.42
2017-11-21T03:37:54.454Z,21.65
2017-11-21T03:38:26.976Z,25.77
2017-11-21T03:38:59.501Z,21.52
2017-11-21T03:39:32.043Z,22.27
2017-11-21T03:40:05.348Z,18.08
2017-11-21T03:40:38.673Z,21.65
2017-11-21T03:41:11.208Z,22.17
2017-11-21T03:41:43.733Z,23.42
2017-11-21T03:42:16.271Z,21.10
2017-11-21T03:42:48.828Z,21.12
2017-11-21T03:43:21.352Z,19.20
2017-11-21T03:43:54.637Z,23.55
2017-11-21T03:44:27.164Z,21.70
2017-11-21T03:44:59.696Z,21.33
2017-11-21T03:45:32.260Z,21.45
2017-11-21T03:46:04.823Z,20.02
2017-11-21T03:46:37.386Z,22.85
2017-11-21T03:47:09.899Z,22.48
2017-11-21T03:47:42.423Z,20.77
2017-11-21T03:48:14.968Z,22.17
2017-11-21T03:48:47.502Z,23.90
2017-11-21T03:49:20.019Z,20.33
2017-11-21T03:49:52.559Z,21.50
2017-11-21T03:50:25.090Z,22.70
2017-11-21T03:50:57.615Z,20.50
2017-11-21T03:51:30.150Z,20.30
2017-11-21T03:52:02.897Z,21.20
2017-11-21T03:52:36.375Z,18.98
2017-11-21T03:53:12.529Z,19.73
2017-11-21T03:53:45.045Z,20.88
2017-11-21T03:54:17.595Z,21.37
2017-11-21T03:54:51.070Z,20.00
2017-11-21T03:55:23.636Z,21.35
2017-11-21T03:55:56.179Z,20.77
2017-11-21T03:56:29.461Z,22.23
2017-11-21T03:57:03.000Z,23.60
2017-11-21T03:57:35.632Z,17.15
2017-11-21T03:58:08.172Z,20.90
2017-11-21T03:58:41.456Z,20.35
2017-11-21T03:59:14.756Z,19.55
2017-11-21T03:59:47.295Z,20.08
2017-11-21T04:00:19.831Z,22.75
2017-11-21T04:00:54.134Z,19.15
2017-11-21T04:01:26.949Z,20.40
2017-11-21T04:01:59.525Z,22.80
2017-11-21T04:02:32.083Z,18.20
2017-11-21T04:03:04.601Z,21.02
2017-11-21T04:03:37.116Z,23.12
2017-11-21T04:04:09.683Z,19.95
2017-11-21T04:04:42.215Z,20.70
2017-11-21T04:05:14.731Z,19.60
2017-11-21T04:05:47.256Z,21.10
2017-11-21T04:06:19.770Z,21.27
2017-11-21T04:06:52.303Z,23.58
2017-11-21T04:07:24.828Z,19.55
2017-11-21T04:07:58.149Z,21.75
2017-11-21T04:08:30.674Z,20.95
2017-11-21T04:09:03.963Z,21.48
2017-11-21T04:09:36.486Z,17.65
2017-11-21T04:10:09.001Z,19.15
2017-11-21T04:10:41.537Z,19.83
2017-11-21T04:11:14.066Z,23.98
2017-11-21T04:11:46.584Z,19.52
2017-11-21T04:12:19.098Z,21.90
2017-11-21T04:12:51.620Z,18.65
2017-11-21T04:13:24.173Z,20.02
2017-11-21T04:13:56.706Z,21.83
2017-11-21T04:14:29.241Z,19.85
2017-11-21T04:15:01.759Z,22.40
2017-11-21T04:15:34.285Z,19.27
2017-11-21T04:16:06.833Z,21.55
2017-11-21T04:16:39.354Z,21.23
2017-11-21T04:17:11.905Z,19.02
2017-11-21T04:17:45.197Z,19.48
2017-11-21T04:18:17.720Z,21.15
2017-11-21T04:18:50.249Z,19.30
2017-11-21T04:19:22.776Z,17.87
2017-11-21T04:19:56.073Z,21.05
2017-11-21T04:20:28.601Z,21.50
2017-11-21T04:21:01.224Z,19.23
2017-11-21T04:21:33.832Z,21.05
2017-11-21T04:22:06.553Z,21.52
2017-11-21T04:22:39.202Z,20.42
2017-11-21T04:23:11.722Z,21.45
2017-11-21T04:23:44.262Z,21.05
2017-11-21T04:24:16.804Z,23.35
2017-11-21T04:24:49.343Z,21.55
2017-11-21T04:25:21.886Z,23.15
2017-11-21T04:25:54.403Z,22.40
2017-11-21T04:26:26.953Z,20.67
2017-11-21T04:26:59.501Z,19.08
2017-11-21T04:27:32.025Z,21.25
2017-11-21T04:28:04.544Z,20.58
2017-11-21T04:28:37.053Z,21.12
2017-11-21T04:29:09.568Z,22.65
2017-11-21T04:29:42.166Z,22.45
2017-11-21T04:30:14.704Z,21.62
2017-11-21T04:30:47.221Z,23.67
2017-11-21T04:31:19.738Z,21.33
2017-11-21T04:31:52.268Z,25.20
2017-11-21T04:32:24.882Z,24.05
2017-11-21T04:32:57.530Z,21.87
2017-11-21T04:33:30.086Z,23.50
2017-11-21T04:34:02.621Z,19.98
2017-11-21T04:34:35.161Z,21.87
2017-11-21T04:35:07.695Z,23.23
2017-11-21T04:35:40.201Z,21.20
2017-11-21T04:36:12.735Z,24.08
2017-11-21T04:36:45.251Z,22.52
2017-11-21T04:37:17.884Z,23.77
2017-11-21T04:37:50.424Z,21.65
2017-11-21T04:38:22.957Z,21.60
2017-11-21T04:38:55.471Z,23.65
2017-11-21T04:39:28.001Z,20.08
2017-11-21T04:40:00.531Z,20.23
2017-11-21T04:40:33.056Z,21.05
2017-11-21T04:41:05.567Z,20.85
2017-11-21T04:41:38.087Z,23.30
2017-11-21T04:42:10.594Z,22.02
2017-11-21T04:42:43.121Z,41.42
2017-11-21T04:43:16.544Z,25.92
2017-11-21T04:43:49.061Z,26.87
2017-11-21T04:44:21.590Z,22.37
2017-11-21T04:44:54.110Z,21.33
2017-11-21T04:45:26.675Z,21.95
2017-11-21T04:45:59.237Z,22.67
2017-11-21T04:46:31.776Z,25.20
2017-11-21T04:47:04.319Z,21.55
2017-11-21T04:47:36.841Z,20.98
2017-11-21T04:48:09.356Z,19.98
2017-11-21T04:48:41.915Z,23.25
2017-11-21T04:49:14.432Z,21.85
2017-11-21T04:49:46.952Z,23.10
2017-11-21T04:50:19.484Z,25.40
2017-11-21T04:50:52.004Z,24.35
2017-11-21T04:51:24.535Z,23.98
2017-11-21T04:51:57.067Z,23.90
2017-11-21T04:52:29.823Z,21.80
2017-11-21T04:53:02.625Z,23.67
2017-11-21T04:53:35.924Z,24.58
2017-11-21T04:54:08.452Z,22.10
2017-11-21T04:54:40.973Z,19.58
2017-11-21T04:55:13.513Z,24.48
2017-11-21T04:55:46.044Z,23.92
2017-11-21T04:56:18.574Z,21.65
2017-11-21T04:56:51.133Z,21.25
2017-11-21T04:57:23.652Z,21.25
2017-11-21T04:57:56.180Z,22.58
2017-11-21T04:58:28.707Z,23.12
2017-11-21T04:59:02.132Z,20.88
2017-11-21T04:59:34.669Z,20.67
2017-11-21T05:00:07.184Z,26.62
2017-11-21T05:00:39.728Z,26.08
2017-11-21T05:01:12.242Z,22.30
2017-11-21T05:01:45.535Z,22.65
2017-11-21T05:02:18.842Z,22.98
2017-11-21T05:02:51.379Z,24.08
2017-11-21T05:03:24.721Z,25.25
2017-11-21T05:03:57.253Z,25.48
2017-11-21T05:04:29.809Z,23.33
2017-11-21T05:05:02.335Z,25.27
2017-11-21T05:05:34.856Z,22.80
2017-11-21T05:06:07.398Z,22.05
2017-11-21T05:06:39.937Z,23.70
2017-11-21T05:07:13.232Z,24.45
2017-11-21T05:07:45.767Z,25.00
2017-11-21T05:08:18.295Z,25.52
2017-11-21T05:08:50.816Z,25.15
2017-11-21T05:09:24.130Z,24.87
2017-11-21T05:09:56.657Z,23.98
2017-11-21T05:10:29.192Z,26.87
2017-11-21T05:11:01.724Z,23.38
2017-11-21T05:11:34.243Z,24.52
2017-11-21T05:12:07.528Z,26.98
2017-11-21T05:12:40.816Z,24.95
2017-11-21T05:13:14.113Z,28.10
2017-11-21T05:13:46.635Z,27.08
2017-11-21T05:14:19.168Z,27.23
2017-11-21T05:14:51.701Z,27.98
2017-11-21T05:15:24.236Z,25.55
2017-11-21T05:15:56.837Z,32.20
2017-11-21T05:16:29.356Z,27.58
2017-11-21T05:17:01.913Z,26.55
2017-11-21T05:17:34.529Z,31.67
2017-11-21T05:18:07.038Z,26.90
2017-11-21T05:18:39.594Z,28.65
2017-11-21T05:19:12.117Z,26.85
2017-11-21T05:19:44.678Z,27.37
2017-11-21T05:20:17.202Z,25.25
2017-11-21T05:20:49.724Z,28.73
2017-11-21T05:21:22.268Z,27.73
2017-11-21T05:21:54.805Z,24.30
2017-11-21T05:22:28.092Z,26.23
2017-11-21T05:23:00.783Z,29.70
2017-11-21T05:23:33.288Z,27.60
2017-11-21T05:24:05.839Z,26.10
2017-11-21T05:24:38.480Z,28.00
2017-11-21T05:25:11.013Z,23.42
2017-11-21T05:25:43.536Z,29.10
2017-11-21T05:26:16.063Z,30.40
2017-11-21T05:26:48.593Z,27.67
2017-11-21T05:27:21.133Z,26.20
2017-11-21T05:27:53.725Z,24.75
2017-11-21T05:28:26.257Z,27.48
2017-11-21T05:28:58.779Z,30.48
2017-11-21T05:29:31.336Z,26.62
2017-11-21T05:30:03.856Z,27.02
2017-11-21T05:30:36.381Z,27.83
2017-11-21T05:31:08.929Z,27.23
2017-11-21T05:31:41.469Z,24.15
2017-11-21T05:32:13.986Z,27.45
2017-11-21T05:32:58.326Z,33.45
2017-11-21T05:33:39.510Z,28.15
2017-11-21T05:34:12.091Z,27.35
2017-11-21T05:34:44.634Z,24.87
2017-11-21T05:35:17.165Z,26.35
2017-11-21T05:35:49.689Z,23.42
2017-11-21T05:36:22.209Z,25.08
2017-11-21T05:36:54.815Z,29.80
2017-11-21T05:37:27.442Z,26.08
2017-11-21T05:37:59.969Z,30.98
2017-11-21T05:38:32.547Z,28.65
2017-11-21T05:39:05.084Z,27.90
2017-11-21T05:39:37.636Z,28.25
2017-11-21T05:40:10.954Z,28.35
2017-11-21T05:40:43.491Z,27.92
2017-11-21T05:41:16.833Z,27.45
2017-11-21T05:41:49.378Z,25.48
2017-11-21T05:42:21.906Z,26.15
2017-11-21T05:42:55.196Z,26.77
2017-11-21T05:43:27.725Z,27.67
2017-11-21T05:44:00.380Z,25.52
2017-11-21T05:44:32.892Z,27.08
2017-11-21T05:45:05.435Z,27.95
2017-11-21T05:45:38.758Z,27.98
2017-11-21T05:46:11.297Z,26.60
2017-11-21T05:46:43.844Z,24.08
2017-11-21T05:47:17.132Z,29.55
2017-11-21T05:47:50.416Z,29.70
2017-11-21T05:48:23.024Z,32.58
2017-11-21T05:48:55.547Z,31.80
2017-11-21T05:49:28.847Z,26.33
2017-11-21T05:50:01.389Z,29.85
2017-11-21T05:50:33.949Z,26.27
2017-11-21T05:51:07.254Z,32.28
2017-11-21T05:51:39.797Z,31.95
2017-11-21T05:52:12.345Z,27.98
2017-11-21T05:52:44.904Z,31.08
2017-11-21T05:53:17.433Z,30.77
2017-11-21T05:53:49.968Z,28.65
2017-11-21T05:54:22.527Z,26.25
2017-11-21T05:54:55.068Z,28.17
2017-11-21T05:55:28.360Z,25.83
2017-11-21T05:56:01.665Z,26.87
2017-11-21T05:56:34.226Z,28.85
2017-11-21T05:57:06.748Z,25.98
2017-11-21T05:57:39.263Z,31.02
2017-11-21T05:58:11.780Z,27.87
2017-11-21T05:58:44.311Z,29.50
2017-11-21T05:59:16.852Z,27.95
2017-11-21T05:59:49.392Z,25.67
2017-11-21T06:00:22.003Z,28.33
2017-11-21T06:00:54.748Z,29.63
2017-11-21T06:01:27.304Z,31.60
2017-11-21T06:01:59.866Z,27.70
2017-11-21T06:02:32.416Z,21.98
2017-11-21T06:03:05.023Z,23.58
2017-11-21T06:03:37.627Z,24.35
2017-11-21T06:04:10.222Z,25.70
2017-11-21T06:04:42.739Z,30.30
2017-11-21T06:05:15.305Z,24.95
2017-11-21T06:05:47.928Z,27.75
2017-11-21T06:06:20.467Z,26.25
2017-11-21T06:06:53.071Z,29.27
2017-11-21T06:07:25.703Z,26.83
2017-11-21T06:07:58.376Z,25.40
2017-11-21T06:08:30.955Z,27.58
2017-11-21T06:09:03.492Z,24.75
2017-11-21T06:09:36.020Z,23.65
2017-11-21T06:10:08.544Z,21.58
2017-11-21T06:10:41.088Z,24.12
2017-11-21T06:11:13.689Z,25.23
2017-11-21T06:11:46.222Z,25.08
2017-11-21T06:12:18.740Z,25.15
2017-11-21T06:12:51.449Z,25.75
2017-11-21T06:13:24.020Z,26.75
2017-11-21T06:13:56.691Z,23.92
2017-11-21T06:14:29.485Z,26.95
2017-11-21T06:15:02.052Z,25.70
2017-11-21T06:15:34.629Z,21.85
2017-11-21T06:16:07.187Z,27.20
2017-11-21T06:16:39.760Z,21.67
2017-11-21T06:17:12.368Z,22.85
2017-11-21T06:17:44.902Z,23.92
2017-11-21T06:18:18.261Z,23.55
2017-11-21T06:18:50.784Z,24.60
2017-11-21T06:19:23.452Z,26.45
2017-11-21T06:19:56.033Z,27.87
2017-11-21T06:20:28.644Z,27.08
2017-11-21T06:21:01.425Z,24.05
2017-11-21T06:21:34.797Z,26.17
2017-11-21T06:22:17.584Z,27.92
2017-11-21T06:22:51.430Z,24.10
2017-11-21T06:23:33.324Z,21.75
2017-11-21T06:24:15.001Z,23.42
2017-11-21T06:24:51.101Z,20.75
2017-11-21T06:25:24.733Z,22.42
2017-11-21T06:26:04.301Z,18.20
2017-11-21T06:26:38.127Z,22.98
2017-11-21T06:27:15.115Z,21.73
2017-11-21T06:27:48.414Z,20.48
2017-11-21T06:28:27.480Z,23.02
2017-11-21T06:29:01.757Z,20.25
2017-11-21T06:29:34.314Z,22.27
2017-11-21T06:30:08.140Z,21.00
2017-11-21T06:30:43.350Z,20.02
2017-11-21T06:31:20.577Z,22.23
2017-11-21T06:31:56.392Z,20.50
2017-11-21T06:32:48.550Z,20.67
2017-11-21T06:33:31.416Z,21.67
2017-11-21T06:34:04.745Z,21.20
2017-11-21T06:34:40.278Z,19.73
2017-11-21T06:35:53.243Z,22.27
2017-11-21T06:36:26.296Z,20.23
2017-11-21T06:37:02.918Z,19.92
2017-11-21T06:38:34.528Z,20.37
2017-11-21T06:39:14.132Z,20.12
2017-11-21T06:39:50.158Z,19.35
2017-11-21T06:40:27.299Z,18.25
2017-11-21T06:41:11.492Z,17.20
2017-11-21T06:41:46.086Z,20.35
2017-11-21T06:42:20.316Z,21.75
2017-11-21T06:42:54.633Z,22.37
2017-11-21T06:43:44.394Z,22.98
2017-11-21T06:44:28.542Z,21.90
2017-11-21T06:45:12.525Z,23.45
2017-11-21T06:45:45.043Z,20.60
2017-11-21T06:46:18.819Z,22.15
2017-11-21T06:46:53.628Z,20.15
2017-11-21T06:47:42.715Z,25.33
2017-11-21T06:48:21.090Z,22.77
2017-11-21T06:48:56.914Z,26.58
2017-11-21T06:49:38.021Z,24.45
2017-11-21T06:50:15.364Z,23.12
2017-11-21T06:50:52.701Z,25.90
2017-11-21T06:51:29.857Z,23.30
2017-11-21T06:52:09.791Z,20.75
2017-11-21T06:52:45.750Z,20.20
2017-11-21T06:53:18.887Z,20.88
2017-11-21T06:53:54.255Z,21.52
2017-11-21T06:54:33.012Z,19.70
2017-11-21T06:55:05.614Z,20.52
2017-11-21T06:55:41.685Z,19.55
2017-11-21T06:56:19.970Z,21.33
2017-11-21T06:57:02.173Z,21.40
2017-11-21T06:57:39.368Z,19.62
2017-11-21T06:58:29.736Z,21.70
2017-11-21T06:59:04.307Z,23.40
2017-11-21T06:59:54.040Z,19.33
2017-11-21T07:00:27.632Z,20.35
2017-11-21T07:01:00.998Z,19.50
2017-11-21T07:01:33.570Z,21.83
2017-11-21T07:02:06.348Z,22.55
2017-11-21T07:02:38.896Z,25.20
2017-11-21T07:03:11.421Z,22.08
2017-11-21T07:03:43.943Z,27.10
2017-11-21T07:04:17.245Z,22.73
2017-11-21T07:04:49.803Z,21.77
2017-11-21T07:05:22.322Z,21.05
2017-11-21T07:05:54.863Z,24.52
2017-11-21T07:06:27.435Z,24.12
2017-11-21T07:06:59.957Z,22.52
2017-11-21T07:07:32.486Z,24.00
2017-11-21T07:08:05.826Z,22.05
2017-11-21T07:08:38.429Z,22.48
2017-11-21T07:09:10.968Z,25.65
2017-11-21T07:09:43.490Z,25.37
2017-11-21T07:10:16.052Z,23.00
2017-11-21T07:10:48.580Z,23.87
2017-11-21T07:11:21.122Z,25.83
2017-11-21T07:11:53.653Z,25.52
2017-11-21T07:12:26.180Z,25.70
2017-11-21T07:12:58.719Z,21.15
2017-11-21T07:13:31.272Z,20.05
2017-11-21T07:14:03.793Z,22.62
2017-11-21T07:14:36.320Z,24.63
2017-11-21T07:15:08.861Z,25.33
2017-11-21T07:15:41.405Z,20.48
2017-11-21T07:16:13.932Z,23.17
2017-11-21T07:16:46.480Z,30.25
2017-11-21T07:17:19.097Z,21.98
2017-11-21T07:17:51.628Z,24.85
2017-11-21T07:18:24.173Z,28.80
2017-11-21T07:18:56.784Z,23.20
2017-11-21T07:19:29.324Z,22.42
2017-11-21T07:20:01.888Z,21.15
2017-11-21T07:20:34.436Z,23.80
2017-11-21T07:21:06.949Z,23.52
2017-11-21T07:21:39.496Z,22.37
2017-11-21T07:22:12.032Z,24.77
2017-11-21T07:22:44.587Z,21.10
2017-11-21T07:23:17.368Z,18.65
2017-11-21T07:23:50.005Z,21.75
2017-11-21T07:24:22.537Z,20.85
2017-11-21T07:24:55.103Z,19.02
2017-11-21T07:25:27.649Z,21.67
2017-11-21T07:26:00.228Z,22.75
2017-11-21T07:26:32.756Z,22.13
2017-11-21T07:27:05.273Z,25.20
2017-11-21T07:27:37.820Z,23.83
2017-11-21T07:28:10.424Z,26.90
2017-11-21T07:28:42.935Z,23.50
2017-11-21T07:29:15.492Z,25.40
2017-11-21T07:29:48.032Z,26.05
2017-11-21T07:30:20.683Z,24.00
2017-11-21T07:30:53.190Z,23.15
2017-11-21T07:31:25.776Z,21.48
2017-11-21T07:31:58.304Z,24.30
2017-11-21T07:32:30.840Z,23.70
2017-11-21T07:33:03.378Z,23.35
2017-11-21T07:33:36.180Z,25.00
2017-11-21T07:34:09.479Z,24.52
2017-11-21T07:34:42.172Z,22.08
2017-11-21T07:35:14.739Z,25.33
2017-11-21T07:35:47.301Z,21.20
2017-11-21T07:36:19.965Z,27.10
2017-11-21T07:36:52.527Z,26.65
2017-11-21T07:37:25.133Z,30.58
2017-11-21T07:37:57.684Z,26.80
2017-11-21T07:38:30.263Z,26.42
2017-11-21T07:39:02.829Z,26.00
2017-11-21T07:39:35.353Z,25.60
2017-11-21T07:40:07.892Z,23.23
2017-11-21T07:40:41.173Z,25.67
2017-11-21T07:41:13.850Z,25.25
2017-11-21T07:41:46.404Z,23.80
2017-11-21T07:42:19.708Z,25.48
2017-11-21T07:42:52.311Z,21.65
2017-11-21T07:43:24.901Z,23.40
2017-11-21T07:43:57.911Z,24.98
2017-11-21T07:44:30.485Z,27.62
2017-11-21T07:45:03.029Z,25.60
2017-11-21T07:45:35.565Z,22.13
2017-11-21T07:46:08.112Z,22.73
2017-11-21T07:46:40.724Z,22.70
2017-11-21T07:47:13.257Z,25.58
2017-11-21T07:47:45.791Z,28.17
2017-11-21T07:48:18.349Z,22.60
2017-11-21T07:48:50.922Z,22.00
2017-11-21T07:49:24.500Z,22.27
2017-11-21T07:49:57.020Z,23.48
2017-11-21T07:50:29.659Z,25.35
2017-11-21T07:51:02.241Z,32.08
2017-11-21T07:51:35.580Z,23.83
2017-11-21T07:52:08.099Z,23.33
2017-11-21T07:52:40.624Z,24.50
2017-11-21T07:53:13.248Z,24.00
2017-11-21T07:53:45.792Z,28.17
2017-11-21T07:54:18.425Z,26.45
2017-11-21T07:54:51.028Z,25.73
2017-11-21T07:55:23.548Z,26.27